sensor_id;sensor_type;location;lat;lon;timestamp;pressure;altitude;pressure_sealevel;temperature;humidity
42847;BME280;28495;49.916;14.536;2023-04-15T00:02:31;95413.16;;;6.51;75.33
42847;BME280;28495;49.916;14.536;2023-04-15T00:07:52;95408.00;;;6.51;75.42
42847;BME280;28495;49.916;14.536;2023-04-15T00:13:13;95403.19;;;6.56;75.48
42847;BME280;28495;49.916;14.536;2023-04-15T00:18:35;95396.50;;;6.53;75.73
42847;BME280;28495;49.916;14.536;2023-04-15T00:23:56;95398.13;;;6.54;75.48
42847;BME280;28495;49.916;14.536;2023-04-15T00:29:17;95393.13;;;6.53;75.48
42847;BME280;28495;49.916;14.536;2023-04-15T00:34:38;95397.63;;;6.51;75.51
42847;BME280;28495;49.916;14.536;2023-04-15T00:40:00;95391.66;;;6.50;75.53
42847;BME280;28495;49.916;14.536;2023-04-15T00:45:21;95384.47;;;6.44;75.54
42847;BME280;28495;49.916;14.536;2023-04-15T00:50:42;95381.78;;;6.36;75.02
42847;BME280;28495;49.916;14.536;2023-04-15T00:56:04;95379.19;;;6.36;75.62
42847;BME280;28495;49.916;14.536;2023-04-15T01:01:25;95380.53;;;6.40;75.87
42847;BME280;28495;49.916;14.536;2023-04-15T01:06:47;95379.56;;;6.41;75.57
42847;BME280;28495;49.916;14.536;2023-04-15T01:12:12;95388.69;;;6.45;75.90
42847;BME280;28495;49.916;14.536;2023-04-15T01:17:35;95380.91;;;6.45;75.96
42847;BME280;28495;49.916;14.536;2023-04-15T01:23:00;95393.03;;;6.45;75.57
42847;BME280;28495;49.916;14.536;2023-04-15T01:28:21;95397.41;;;6.44;75.71
42847;BME280;28495;49.916;14.536;2023-04-15T01:33:42;95397.13;;;6.47;75.84
42847;BME280;28495;49.916;14.536;2023-04-15T01:39:03;95399.72;;;6.47;75.84
42847;BME280;28495;49.916;14.536;2023-04-15T01:44:25;95402.75;;;6.43;75.50
42847;BME280;28495;49.916;14.536;2023-04-15T01:49:45;95403.16;;;6.38;75.56
42847;BME280;28495;49.916;14.536;2023-04-15T01:55:07;95403.84;;;6.40;75.94
42847;BME280;28495;49.916;14.536;2023-04-15T02:00:28;95396.91;;;6.40;75.66
42847;BME280;28495;49.916;14.536;2023-04-15T02:05:50;95397.56;;;6.43;75.82
42847;BME280;28495;49.916;14.536;2023-04-15T02:11:11;95404.97;;;6.37;75.49
42847;BME280;28495;49.916;14.536;2023-04-15T02:16:32;95405.84;;;6.46;76.01
42847;BME280;28495;49.916;14.536;2023-04-15T02:21:53;95410.41;;;6.52;75.85
42847;BME280;28495;49.916;14.536;2023-04-15T02:27:15;95420.41;;;6.65;76.06
42847;BME280;28495;49.916;14.536;2023-04-15T02:32:37;95417.13;;;6.81;76.13
42847;BME280;28495;49.916;14.536;2023-04-15T02:37:58;95410.56;;;6.87;75.77
42847;BME280;28495;49.916;14.536;2023-04-15T02:43:21;95405.38;;;6.87;75.56
42847;BME280;28495;49.916;14.536;2023-04-15T02:48:43;95407.13;;;6.86;75.58
42847;BME280;28495;49.916;14.536;2023-04-15T02:54:04;95413.22;;;6.77;75.33
42847;BME280;28495;49.916;14.536;2023-04-15T02:59:25;95415.97;;;6.76;75.44
42847;BME280;28495;49.916;14.536;2023-04-15T03:04:46;95419.28;;;6.68;75.47
42847;BME280;28495;49.916;14.536;2023-04-15T03:10:08;95422.78;;;6.77;75.52
42847;BME280;28495;49.916;14.536;2023-04-15T03:15:29;95420.38;;;6.83;75.74
42847;BME280;28495;49.916;14.536;2023-04-15T03:20:50;95417.38;;;6.88;75.65
42847;BME280;28495;49.916;14.536;2023-04-15T03:26:29;95421.88;;;6.86;75.44
42847;BME280;28495;49.916;14.536;2023-04-15T03:31:54;95426.84;;;6.79;75.40
42847;BME280;28495;49.916;14.536;2023-04-15T03:37:15;95433.81;;;6.79;75.54
42847;BME280;28495;49.916;14.536;2023-04-15T03:42:36;95447.63;;;6.51;74.68
42847;BME280;28495;49.916;14.536;2023-04-15T03:47:57;95452.44;;;6.28;74.82
42847;BME280;28495;49.916;14.536;2023-04-15T03:53:35;95464.44;;;6.01;74.29
42847;BME280;28495;49.916;14.536;2023-04-15T03:58:56;95467.38;;;5.78;74.68
42847;BME280;28495;49.916;14.536;2023-04-15T04:04:17;95487.84;;;5.62;74.25
42847;BME280;28495;49.916;14.536;2023-04-15T04:09:37;95480.81;;;5.44;74.45
42847;BME280;28495;49.916;14.536;2023-04-15T04:15:00;95484.69;;;5.21;74.05
42847;BME280;28495;49.916;14.536;2023-04-15T04:20:21;95490.28;;;5.06;74.38
42847;BME280;28495;49.916;14.536;2023-04-15T04:25:42;95498.84;;;5.07;74.37
42847;BME280;28495;49.916;14.536;2023-04-15T04:31:03;95506.19;;;5.01;74.36
42847;BME280;28495;49.916;14.536;2023-04-15T04:36:23;95511.50;;;4.90;74.19
42847;BME280;28495;49.916;14.536;2023-04-15T04:41:44;95519.94;;;4.82;74.01
42847;BME280;28495;49.916;14.536;2023-04-15T04:47:05;95522.09;;;4.77;74.21
42847;BME280;28495;49.916;14.536;2023-04-15T04:52:27;95526.19;;;4.70;74.20
42847;BME280;28495;49.916;14.536;2023-04-15T04:57:47;95527.41;;;4.76;74.60
42847;BME280;28495;49.916;14.536;2023-04-15T05:03:08;95534.75;;;4.80;74.17
42847;BME280;28495;49.916;14.536;2023-04-15T05:08:30;95530.66;;;4.78;73.96
42847;BME280;28495;49.916;14.536;2023-04-15T05:13:50;95539.09;;;4.80;74.06
42847;BME280;28495;49.916;14.536;2023-04-15T05:19:11;95542.22;;;4.83;74.01
42847;BME280;28495;49.916;14.536;2023-04-15T05:24:32;95544.81;;;4.93;74.30
42847;BME280;28495;49.916;14.536;2023-04-15T05:29:53;95556.50;;;4.87;73.92
42847;BME280;28495;49.916;14.536;2023-04-15T05:35:14;95553.91;;;4.78;74.35
42847;BME280;28495;49.916;14.536;2023-04-15T05:40:35;95570.91;;;4.80;73.94
42847;BME280;28495;49.916;14.536;2023-04-15T05:45:56;95568.34;;;4.90;73.95
42847;BME280;28495;49.916;14.536;2023-04-15T05:51:17;95572.56;;;5.01;73.95
42847;BME280;28495;49.916;14.536;2023-04-15T05:56:38;95577.59;;;5.02;74.07
42847;BME280;28495;49.916;14.536;2023-04-15T06:01:58;95592.03;;;5.05;73.86
42847;BME280;28495;49.916;14.536;2023-04-15T06:07:19;95592.41;;;5.10;73.88
42847;BME280;28495;49.916;14.536;2023-04-15T06:12:40;95606.72;;;5.24;73.87
42847;BME280;28495;49.916;14.536;2023-04-15T06:18:01;95610.38;;;5.31;73.84
42847;BME280;28495;49.916;14.536;2023-04-15T06:23:22;95609.00;;;5.37;73.90
42847;BME280;28495;49.916;14.536;2023-04-15T06:28:45;95617.34;;;5.41;73.67
42847;BME280;28495;49.916;14.536;2023-04-15T06:34:06;95613.22;;;5.48;73.86
42847;BME280;28495;49.916;14.536;2023-04-15T06:39:27;95621.66;;;5.60;74.00
42847;BME280;28495;49.916;14.536;2023-04-15T06:44:48;95618.53;;;5.66;73.12
42847;BME280;28495;49.916;14.536;2023-04-15T06:50:09;95626.69;;;5.61;73.30
42847;BME280;28495;49.916;14.536;2023-04-15T06:55:30;95644.25;;;5.58;72.99
42847;BME280;28495;49.916;14.536;2023-04-15T07:00:51;95657.34;;;5.56;73.04
42847;BME280;28495;49.916;14.536;2023-04-15T07:06:12;95626.31;;;5.56;72.66
42847;BME280;28495;49.916;14.536;2023-04-15T07:11:34;95644.13;;;5.49;72.44
42847;BME280;28495;49.916;14.536;2023-04-15T07:16:54;95659.38;;;5.43;72.84
42847;BME280;28495;49.916;14.536;2023-04-15T07:22:15;95667.69;;;5.46;72.68
42847;BME280;28495;49.916;14.536;2023-04-15T07:27:36;95677.88;;;5.58;72.50
42847;BME280;28495;49.916;14.536;2023-04-15T07:32:57;95669.72;;;5.53;72.51
42847;BME280;28495;49.916;14.536;2023-04-15T07:38:19;95678.28;;;5.43;72.63
42847;BME280;28495;49.916;14.536;2023-04-15T07:43:39;95682.63;;;5.53;72.65
42847;BME280;28495;49.916;14.536;2023-04-15T07:49:00;95684.28;;;5.63;72.36
42847;BME280;28495;49.916;14.536;2023-04-15T07:54:22;95688.25;;;5.77;72.24
42847;BME280;28495;49.916;14.536;2023-04-15T07:59:43;95699.66;;;5.75;71.70
42847;BME280;28495;49.916;14.536;2023-04-15T08:05:04;95695.03;;;5.78;72.06
42847;BME280;28495;49.916;14.536;2023-04-15T08:10:25;95701.84;;;5.89;72.02
42847;BME280;28495;49.916;14.536;2023-04-15T08:16:11;95715.19;;;5.94;72.86
42847;BME280;28495;49.916;14.536;2023-04-15T08:21:33;95705.88;;;6.31;72.11
42847;BME280;28495;49.916;14.536;2023-04-15T08:26:54;95708.63;;;6.30;71.35
42847;BME280;28495;49.916;14.536;2023-04-15T08:32:16;95716.84;;;6.15;70.82
42847;BME280;28495;49.916;14.536;2023-04-15T08:37:37;95722.41;;;6.20;71.80
42847;BME280;28495;49.916;14.536;2023-04-15T08:42:57;95730.31;;;6.29;71.45
42847;BME280;28495;49.916;14.536;2023-04-15T08:48:20;95732.03;;;6.38;71.32
42847;BME280;28495;49.916;14.536;2023-04-15T08:53:44;95741.03;;;6.44;71.18
42847;BME280;28495;49.916;14.536;2023-04-15T08:59:07;95745.00;;;6.38;70.73
42847;BME280;28495;49.916;14.536;2023-04-15T09:04:29;95748.53;;;6.37;70.84
42847;BME280;28495;49.916;14.536;2023-04-15T09:09:51;95741.69;;;6.46;71.15
42847;BME280;28495;49.916;14.536;2023-04-15T09:15:12;95748.13;;;6.42;70.42
42847;BME280;28495;49.916;14.536;2023-04-15T09:20:40;95752.75;;;6.48;70.70
42847;BME280;28495;49.916;14.536;2023-04-15T09:26:03;95757.25;;;6.46;70.55
42847;BME280;28495;49.916;14.536;2023-04-15T09:31:29;95760.91;;;6.53;70.68
42847;BME280;28495;49.916;14.536;2023-04-15T09:36:53;95774.25;;;6.58;70.25
42847;BME280;28495;49.916;14.536;2023-04-15T09:42:14;95777.69;;;6.49;70.18
42847;BME280;28495;49.916;14.536;2023-04-15T09:47:37;95786.56;;;6.46;70.33
42847;BME280;28495;49.916;14.536;2023-04-15T09:52:58;95786.41;;;6.58;70.18
42847;BME280;28495;49.916;14.536;2023-04-15T09:58:19;95784.34;;;6.61;70.04
42847;BME280;28495;49.916;14.536;2023-04-15T10:03:41;95781.19;;;6.67;70.08
42847;BME280;28495;49.916;14.536;2023-04-15T10:09:02;95778.56;;;6.87;70.37
42847;BME280;28495;49.916;14.536;2023-04-15T10:14:23;95778.94;;;6.92;69.99
42847;BME280;28495;49.916;14.536;2023-04-15T10:19:47;95779.47;;;6.96;70.12
42847;BME280;28495;49.916;14.536;2023-04-15T10:25:09;95783.56;;;6.98;69.69
42847;BME280;28495;49.916;14.536;2023-04-15T10:30:32;95797.59;;;6.96;69.81
42847;BME280;28495;49.916;14.536;2023-04-15T10:35:54;95809.50;;;6.98;69.80
42847;BME280;28495;49.916;14.536;2023-04-15T10:41:19;95805.22;;;7.07;69.78
42847;BME280;28495;49.916;14.536;2023-04-15T10:46:43;95802.75;;;7.06;69.57
42847;BME280;28495;49.916;14.536;2023-04-15T10:52:07;95822.41;;;7.08;69.47
42847;BME280;28495;49.916;14.536;2023-04-15T10:57:34;95820.34;;;7.12;69.07
42847;BME280;28495;49.916;14.536;2023-04-15T11:03:05;95827.69;;;7.16;69.35
42847;BME280;28495;49.916;14.536;2023-04-15T11:09:29;95832.06;;;7.26;69.29
42847;BME280;28495;49.916;14.536;2023-04-15T11:14:33;95839.25;;;7.32;69.51
42847;BME280;28495;49.916;14.536;2023-04-15T11:19:56;95841.09;;;7.50;69.41
42847;BME280;28495;49.916;14.536;2023-04-15T11:25:25;95842.81;;;7.59;69.43
42847;BME280;28495;49.916;14.536;2023-04-15T11:30:46;95842.47;;;7.44;68.64
42847;BME280;28495;49.916;14.536;2023-04-15T11:36:09;95843.88;;;7.38;69.09
42847;BME280;28495;49.916;14.536;2023-04-15T11:41:30;95859.00;;;7.43;69.38
42847;BME280;28495;49.916;14.536;2023-04-15T11:46:51;95867.28;;;7.56;69.63
42847;BME280;28495;49.916;14.536;2023-04-15T11:52:11;95861.88;;;7.68;70.15
42847;BME280;28495;49.916;14.536;2023-04-15T11:57:34;95876.59;;;7.77;69.69
42847;BME280;28495;49.916;14.536;2023-04-15T12:03:29;95870.97;;;7.82;69.14
42847;BME280;28495;49.916;14.536;2023-04-15T12:09:02;95877.53;;;7.86;68.89
42847;BME280;28495;49.916;14.536;2023-04-15T12:14:25;95876.13;;;7.91;69.02
42847;BME280;28495;49.916;14.536;2023-04-15T12:19:47;95872.78;;;7.99;69.15
42847;BME280;28495;49.916;14.536;2023-04-15T12:25:09;95890.13;;;7.99;68.75
42847;BME280;28495;49.916;14.536;2023-04-15T12:30:31;95894.25;;;8.01;69.07
42847;BME280;28495;49.916;14.536;2023-04-15T12:35:52;95890.53;;;8.04;69.10
42847;BME280;28495;49.916;14.536;2023-04-15T12:41:13;95904.03;;;8.07;67.91
42847;BME280;28495;49.916;14.536;2023-04-15T12:46:34;95902.91;;;8.10;68.11
42847;BME280;28495;49.916;14.536;2023-04-15T12:51:55;95899.56;;;8.18;67.94
42847;BME280;28495;49.916;14.536;2023-04-15T12:57:16;95912.50;;;8.09;67.41
42847;BME280;28495;49.916;14.536;2023-04-15T13:02:37;95918.91;;;7.87;67.12
42847;BME280;28495;49.916;14.536;2023-04-15T13:07:58;95926.56;;;7.79;67.23
42847;BME280;28495;49.916;14.536;2023-04-15T13:13:19;95934.31;;;7.89;67.62
42847;BME280;28495;49.916;14.536;2023-04-15T13:18:40;95924.84;;;7.98;67.79
42847;BME280;28495;49.916;14.536;2023-04-15T13:24:02;95925.94;;;8.41;68.94
42847;BME280;28495;49.916;14.536;2023-04-15T13:29:23;95929.63;;;8.48;68.05
42847;BME280;28495;49.916;14.536;2023-04-15T13:34:44;95938.25;;;8.49;68.10
42847;BME280;28495;49.916;14.536;2023-04-15T13:40:05;95937.72;;;8.63;67.62
42847;BME280;28495;49.916;14.536;2023-04-15T13:45:27;95940.03;;;8.84;67.60
42847;BME280;28495;49.916;14.536;2023-04-15T13:50:48;95938.63;;;8.90;67.65
42847;BME280;28495;49.916;14.536;2023-04-15T13:56:09;95949.00;;;8.72;67.20
42847;BME280;28495;49.916;14.536;2023-04-15T14:01:29;95955.41;;;8.60;67.98
42847;BME280;28495;49.916;14.536;2023-04-15T14:06:50;95970.09;;;8.51;67.74
42847;BME280;28495;49.916;14.536;2023-04-15T14:12:11;95965.19;;;8.48;68.34
42847;BME280;28495;49.916;14.536;2023-04-15T14:17:32;95976.19;;;8.32;68.03
42847;BME280;28495;49.916;14.536;2023-04-15T14:22:53;95981.69;;;8.29;68.09
42847;BME280;28495;49.916;14.536;2023-04-15T14:28:14;95988.91;;;8.35;68.60
42847;BME280;28495;49.916;14.536;2023-04-15T14:33:35;95993.50;;;8.41;68.76
42847;BME280;28495;49.916;14.536;2023-04-15T14:38:56;96000.88;;;8.46;68.65
42847;BME280;28495;49.916;14.536;2023-04-15T14:44:17;96011.22;;;8.28;68.63
42847;BME280;28495;49.916;14.536;2023-04-15T14:49:37;96004.06;;;8.12;68.61
42847;BME280;28495;49.916;14.536;2023-04-15T14:54:58;96017.59;;;8.05;68.36
42847;BME280;28495;49.916;14.536;2023-04-15T15:00:19;96015.81;;;8.16;68.82
42847;BME280;28495;49.916;14.536;2023-04-15T15:05:41;96025.88;;;8.19;68.85
42847;BME280;28495;49.916;14.536;2023-04-15T15:11:02;96025.16;;;8.27;68.84
42847;BME280;28495;49.916;14.536;2023-04-15T15:16:23;96029.22;;;8.39;69.44
42847;BME280;28495;49.916;14.536;2023-04-15T15:21:45;96031.28;;;8.63;69.75
42847;BME280;28495;49.916;14.536;2023-04-15T15:27:06;96039.63;;;8.67;68.96
42847;BME280;28495;49.916;14.536;2023-04-15T15:32:27;96046.28;;;8.51;68.60
42847;BME280;28495;49.916;14.536;2023-04-15T15:37:48;96057.25;;;8.35;68.40
42847;BME280;28495;49.916;14.536;2023-04-15T15:43:09;96061.00;;;8.23;68.50
42847;BME280;28495;49.916;14.536;2023-04-15T15:48:30;96066.72;;;8.27;69.19
42847;BME280;28495;49.916;14.536;2023-04-15T15:53:51;96071.41;;;8.23;68.87
42847;BME280;28495;49.916;14.536;2023-04-15T15:59:12;96075.09;;;8.20;68.89
42847;BME280;28495;49.916;14.536;2023-04-15T16:04:33;96074.53;;;8.27;69.19
42847;BME280;28495;49.916;14.536;2023-04-15T16:09:54;96080.28;;;8.30;69.13
42847;BME280;28495;49.916;14.536;2023-04-15T16:15:15;96082.69;;;8.42;69.16
42847;BME280;28495;49.916;14.536;2023-04-15T16:20:37;96085.53;;;8.76;69.38
42847;BME280;28495;49.916;14.536;2023-04-15T16:25:58;96089.25;;;8.74;69.44
42847;BME280;28495;49.916;14.536;2023-04-15T16:31:19;96090.78;;;8.66;68.77
42847;BME280;28495;49.916;14.536;2023-04-15T16:36:40;96094.22;;;8.67;69.15
42847;BME280;28495;49.916;14.536;2023-04-15T16:42:01;96102.78;;;8.77;69.42
42847;BME280;28495;49.916;14.536;2023-04-15T16:47:22;96109.81;;;8.67;68.88
42847;BME280;28495;49.916;14.536;2023-04-15T16:52:43;96126.03;;;8.79;69.32
42847;BME280;28495;49.916;14.536;2023-04-15T16:58:04;96123.97;;;8.82;70.02
42847;BME280;28495;49.916;14.536;2023-04-15T17:03:27;96132.91;;;8.98;69.23
42847;BME280;28495;49.916;14.536;2023-04-15T17:08:49;96147.91;;;8.86;68.88
42847;BME280;28495;49.916;14.536;2023-04-15T17:14:11;96156.81;;;8.83;70.66
42847;BME280;28495;49.916;14.536;2023-04-15T17:19:31;96153.84;;;8.96;69.49
42847;BME280;28495;49.916;14.536;2023-04-15T17:24:53;96174.59;;;8.78;68.53
42847;BME280;28495;49.916;14.536;2023-04-15T17:30:13;96169.88;;;8.64;68.88
42847;BME280;28495;49.916;14.536;2023-04-15T17:35:34;96175.94;;;8.54;68.73
42847;BME280;28495;49.916;14.536;2023-04-15T17:40:55;96184.13;;;8.40;68.87
42847;BME280;28495;49.916;14.536;2023-04-15T17:46:16;96180.56;;;8.61;70.01
42847;BME280;28495;49.916;14.536;2023-04-15T17:51:38;96193.88;;;8.38;68.83
42847;BME280;28495;49.916;14.536;2023-04-15T17:57:00;96196.25;;;8.12;68.64
42847;BME280;28495;49.916;14.536;2023-04-15T18:02:22;96207.69;;;8.19;69.35
42847;BME280;28495;49.916;14.536;2023-04-15T18:07:44;96214.25;;;8.23;68.88
42847;BME280;28495;49.916;14.536;2023-04-15T18:13:05;96225.50;;;7.94;68.68
42847;BME280;28495;49.916;14.536;2023-04-15T18:18:26;96229.59;;;7.77;68.74
42847;BME280;28495;49.916;14.536;2023-04-15T18:23:48;96242.28;;;7.60;68.54
42847;BME280;28495;49.916;14.536;2023-04-15T18:29:09;96245.59;;;7.62;68.74
42847;BME280;28495;49.916;14.536;2023-04-15T18:34:30;96250.91;;;7.71;68.93
42847;BME280;28495;49.916;14.536;2023-04-15T18:39:50;96263.06;;;7.70;68.43
42847;BME280;28495;49.916;14.536;2023-04-15T18:45:12;96263.72;;;7.72;68.63
42847;BME280;28495;49.916;14.536;2023-04-15T18:50:32;96278.63;;;7.60;68.43
42847;BME280;28495;49.916;14.536;2023-04-15T18:55:53;96285.69;;;7.48;68.54
42847;BME280;28495;49.916;14.536;2023-04-15T19:01:16;96292.06;;;7.35;68.13
42847;BME280;28495;49.916;14.536;2023-04-15T19:06:36;96301.25;;;7.08;68.15
42847;BME280;28495;49.916;14.536;2023-04-15T19:11:57;96311.56;;;6.98;68.46
42847;BME280;28495;49.916;14.536;2023-04-15T19:17:18;96312.97;;;7.02;68.95
42847;BME280;28495;49.916;14.536;2023-04-15T19:22:39;96335.25;;;7.14;68.46
42847;BME280;28495;49.916;14.536;2023-04-15T19:28:01;96332.75;;;7.03;68.34
42847;BME280;28495;49.916;14.536;2023-04-15T19:33:22;96335.91;;;7.07;68.11
42847;BME280;28495;49.916;14.536;2023-04-15T19:38:42;96344.59;;;7.27;69.67
42847;BME280;28495;49.916;14.536;2023-04-15T19:44:04;96351.50;;;7.16;68.10
42847;BME280;28495;49.916;14.536;2023-04-15T19:49:25;96342.78;;;7.17;68.07
42847;BME280;28495;49.916;14.536;2023-04-15T19:54:46;96357.53;;;7.17;68.25
42847;BME280;28495;49.916;14.536;2023-04-15T20:00:08;96371.38;;;7.27;68.26
42847;BME280;28495;49.916;14.536;2023-04-15T20:05:28;96370.63;;;7.15;67.70
42847;BME280;28495;49.916;14.536;2023-04-15T20:10:50;96375.69;;;6.96;67.92
42847;BME280;28495;49.916;14.536;2023-04-15T20:16:11;96385.09;;;6.97;68.02
42847;BME280;28495;49.916;14.536;2023-04-15T20:21:36;96385.81;;;6.78;67.75
42847;BME280;28495;49.916;14.536;2023-04-15T20:26:57;96395.78;;;6.61;67.76
42847;BME280;28495;49.916;14.536;2023-04-15T20:32:18;96401.00;;;6.50;68.08
42847;BME280;28495;49.916;14.536;2023-04-15T20:37:42;96409.63;;;6.39;68.14
42847;BME280;28495;49.916;14.536;2023-04-15T20:43:03;96411.09;;;6.32;68.38
42847;BME280;28495;49.916;14.536;2023-04-15T20:48:23;96409.31;;;6.32;68.51
42847;BME280;28495;49.916;14.536;2023-04-15T20:53:44;96412.94;;;6.41;69.05
42847;BME280;28495;49.916;14.536;2023-04-15T20:59:05;96407.13;;;6.49;68.71
42847;BME280;28495;49.916;14.536;2023-04-15T21:04:26;96415.69;;;6.61;69.14
42847;BME280;28495;49.916;14.536;2023-04-15T21:09:47;96419.81;;;6.63;69.26
42847;BME280;28495;49.916;14.536;2023-04-15T21:15:09;96419.81;;;6.63;69.24
42847;BME280;28495;49.916;14.536;2023-04-15T21:20:30;96421.13;;;6.58;69.22
42847;BME280;28495;49.916;14.536;2023-04-15T21:25:50;96429.84;;;6.56;69.00
42847;BME280;28495;49.916;14.536;2023-04-15T21:31:11;96445.25;;;6.58;69.42
42847;BME280;28495;49.916;14.536;2023-04-15T21:36:31;96447.97;;;6.56;69.29
42847;BME280;28495;49.916;14.536;2023-04-15T21:41:53;96457.16;;;6.61;69.33
42847;BME280;28495;49.916;14.536;2023-04-15T21:47:14;96457.72;;;6.64;69.18
42847;BME280;28495;49.916;14.536;2023-04-15T21:52:35;96459.75;;;6.61;69.23
42847;BME280;28495;49.916;14.536;2023-04-15T21:57:56;96460.69;;;6.60;69.44
42847;BME280;28495;49.916;14.536;2023-04-15T22:03:17;96468.19;;;6.74;69.51
42847;BME280;28495;49.916;14.536;2023-04-15T22:08:38;96468.09;;;6.64;69.40
42847;BME280;28495;49.916;14.536;2023-04-15T22:14:16;96465.69;;;6.40;68.84
42847;BME280;28495;49.916;14.536;2023-04-15T22:19:36;96473.34;;;6.42;69.26
42847;BME280;28495;49.916;14.536;2023-04-15T22:24:57;96484.50;;;6.42;69.23
42847;BME280;28495;49.916;14.536;2023-04-15T22:30:18;96487.34;;;6.39;69.08
42847;BME280;28495;49.916;14.536;2023-04-15T22:35:38;96488.66;;;6.33;68.93
42847;BME280;28495;49.916;14.536;2023-04-15T22:40:59;96497.13;;;6.35;69.14
42847;BME280;28495;49.916;14.536;2023-04-15T22:46:20;96508.31;;;6.47;69.02
42847;BME280;28495;49.916;14.536;2023-04-15T22:51:42;96514.28;;;6.48;69.07
42847;BME280;28495;49.916;14.536;2023-04-15T22:57:03;96518.28;;;6.52;68.94
42847;BME280;28495;49.916;14.536;2023-04-15T23:02:24;96527.34;;;6.58;69.14
42847;BME280;28495;49.916;14.536;2023-04-15T23:07:44;96527.72;;;6.53;68.77
42847;BME280;28495;49.916;14.536;2023-04-15T23:13:06;96533.84;;;6.52;69.07
42847;BME280;28495;49.916;14.536;2023-04-15T23:18:27;96537.94;;;6.54;68.95
42847;BME280;28495;49.916;14.536;2023-04-15T23:23:48;96541.28;;;6.45;68.57
42847;BME280;28495;49.916;14.536;2023-04-15T23:29:08;96544.91;;;6.31;68.51
42847;BME280;28495;49.916;14.536;2023-04-15T23:34:30;96538.69;;;6.34;69.02
42847;BME280;28495;49.916;14.536;2023-04-15T23:39:50;96540.56;;;6.43;68.95
42847;BME280;28495;49.916;14.536;2023-04-15T23:45:12;96544.91;;;6.31;68.55
42847;BME280;28495;49.916;14.536;2023-04-15T23:50:32;96548.81;;;6.14;68.31
42847;BME280;28495;49.916;14.536;2023-04-15T23:55:53;96547.03;;;5.92;68.74
